^^
Meteo Knjazevac Station Historical Data
Daily Summary for March 6, 2021 Units:  English    Metric   Both
Daily Weekly Monthly Yearly Custom
  High: Low: Average:
Temperature: 65.3 °F 62.2 °F 63.6 °F
Dew Point: 62.6 °F 60.8 °F 61.6 °F
Humidity: 95% 91% 93%
Wind Speed: 3mph 0mph 1mph
Wind Gust: 6mph - -
Wind- - South
Pressure: 29.99 in 29.98 in -
Precipitation: 0.00 in    
Historical Graphs
 
 
Tabular Data for March 6, 2021
Time Temperature Dew Point Pressure Wind Wind Speed Wind Gust Humidity Rainfall Rate (Hourly) solar Conditions
00:00 65.3 °F 62.6 °F 29.98 in Calm   4 mph 91% 0.00 in 0 W/m2
00:10 65.1 °F 62.4 °F 29.98 in SSE 1 mph 3 mph 91% 0.00 in 0 W/m2
00:20 64.9 °F 62.2 °F 29.98 in Calm   2 mph 91% 0.00 in 0 W/m2
00:30 64.8 °F 62.1 °F 29.98 in Calm     91% 0.00 in 0 W/m2
00:40 64.6 °F 61.9 °F 29.98 in NNW 1 mph 2 mph 91% 0.00 in 0 W/m2
00:50 64.5 °F 61.9 °F 29.98 in North 1 mph 2 mph 91% 0.00 in 0 W/m2
01:00 64.4 °F 62.3 °F 29.98 in WSW 2 mph 6 mph 93% 0.00 in 0 W/m2
01:10 64.2 °F 62.2 °F 29.98 in NW 1 mph 5 mph 93% 0.00 in 0 W/m2
01:20 63.9 °F 61.8 °F 29.98 in South 2 mph 6 mph 93% 0.00 in 0 W/m2
01:30 63.7 °F 61.6 °F 29.98 in Calm   5 mph 93% 0.00 in 0 W/m2
01:40 63.5 °F 61.4 °F 29.98 in Calm   2 mph 93% 0.00 in 0 W/m2
01:50 63.5 °F 61.4 °F 29.98 in NE 1 mph 3 mph 93% 0.00 in 0 W/m2
02:00 63.3 °F 61.3 °F 29.98 in SSW 1 mph 3 mph 93% 0.00 in 0 W/m2
02:10 63.1 °F 61.4 °F 29.98 in SW 1 mph 3 mph 94% 0.00 in 0 W/m2
02:20 63 °F 61.2 °F 29.98 in South 3 mph 5 mph 94% 0.00 in 0 W/m2
02:30 63 °F 61.2 °F 29.98 in SW 2 mph 3 mph 94% 0.00 in 0 W/m2
02:40 62.8 °F 61 °F 29.98 in South 2 mph 6 mph 94% 0.00 in 0 W/m2
02:50 62.6 °F 60.8 °F 29.98 in SSW 1 mph 5 mph 94% 0.00 in 0 W/m2
03:00 62.4 °F 61 °F 29.98 in SSE 1 mph 5 mph 95% 0.00 in 0 W/m2
03:10 62.4 °F 61 °F 29.99 in SE 1 mph 5 mph 95% 0.00 in 0 W/m2
03:20 62.4 °F 61 °F 29.99 in ENE 1 mph 4 mph 95% 0.00 in 0 W/m2
03:30 62.2 °F 60.8 °F 29.99 in Calm   2 mph 95% 0.00 in 0 W/m2
Knjazevac, Serbia
Compliments of Weather Underground - 2 mb